createdAt,value
2019-05-30T00:02:04.756Z,18.70
2019-05-30T00:04:31.573Z,18.70
2019-05-30T00:06:58.627Z,18.70
2019-05-30T00:09:25.484Z,18.70
2019-05-30T00:11:52.471Z,18.60
2019-05-30T00:14:19.149Z,18.60
2019-05-30T00:16:45.806Z,18.60
2019-05-30T00:19:12.538Z,18.40
2019-05-30T00:21:41.194Z,18.30
2019-05-30T00:24:09.168Z,18.30
2019-05-30T00:26:35.817Z,18.20
2019-05-30T00:29:02.678Z,18.20
2019-05-30T00:31:31.631Z,18.10
2019-05-30T00:34:00.022Z,18.10
2019-05-30T00:36:28.506Z,18.10
2019-05-30T00:39:27.610Z,18.00
2019-05-30T00:41:57.878Z,18.00
2019-05-30T00:44:26.694Z,18.00
2019-05-30T00:46:58.063Z,18.00
2019-05-30T00:49:26.612Z,17.90
2019-05-30T00:51:54.404Z,17.80
2019-05-30T00:54:22.395Z,17.70
2019-05-30T00:56:50.267Z,17.60
2019-05-30T00:59:16.883Z,17.60
2019-05-30T01:01:44.910Z,17.50
2019-05-30T01:04:15.424Z,17.50
2019-05-30T01:06:43.586Z,17.60
2019-05-30T01:09:12.039Z,17.60
2019-05-30T01:11:39.596Z,17.60
2019-05-30T01:14:08.828Z,17.60
2019-05-30T01:16:42.301Z,17.50
2019-05-30T01:19:09.320Z,17.50
2019-05-30T01:21:37.256Z,17.30
2019-05-30T01:24:05.676Z,17.30
2019-05-30T01:26:32.595Z,17.10
2019-05-30T01:29:01.352Z,16.90
2019-05-30T01:31:29.276Z,16.90
2019-05-30T01:33:57.411Z,16.70
2019-05-30T01:36:25.083Z,16.70
2019-05-30T01:38:55.836Z,16.80
2019-05-30T01:41:23.158Z,16.70
2019-05-30T01:43:55.657Z,16.60
2019-05-30T01:46:23.662Z,16.60
2019-05-30T01:48:51.104Z,16.70
2019-05-30T01:51:18.907Z,16.80
2019-05-30T01:53:45.978Z,16.90
2019-05-30T01:56:13.183Z,16.90
2019-05-30T01:58:42.828Z,17.00
2019-05-30T02:01:23.690Z,17.10
2019-05-30T02:03:44.483Z,17.00
2019-05-30T02:06:12.609Z,17.00
2019-05-30T02:08:41.214Z,16.90
2019-05-30T02:11:09.464Z,17.00
2019-05-30T02:13:38.867Z,16.90
2019-05-30T02:16:07.837Z,16.70
2019-05-30T02:18:35.986Z,16.60
2019-05-30T02:21:03.780Z,16.70
2019-05-30T02:23:31.760Z,16.70
2019-05-30T02:25:59.972Z,16.70
2019-05-30T02:28:27.802Z,16.70
2019-05-30T02:30:55.301Z,16.60
2019-05-30T02:33:23.383Z,16.50
2019-05-30T02:35:51.316Z,16.40
2019-05-30T02:38:20.049Z,16.30
2019-05-30T02:40:48.561Z,16.20
2019-05-30T02:43:19.549Z,16.10
2019-05-30T02:45:50.577Z,16.00
2019-05-30T02:48:18.806Z,15.90
2019-05-30T02:50:51.307Z,15.90
2019-05-30T02:53:20.805Z,15.90
2019-05-30T02:55:49.414Z,15.90
2019-05-30T02:58:16.443Z,15.90
2019-05-30T03:00:44.480Z,16.00
2019-05-30T03:03:15.877Z,16.00
2019-05-30T03:05:44.374Z,16.00
2019-05-30T03:08:14.369Z,16.00
2019-05-30T03:10:41.280Z,15.90
2019-05-30T03:13:08.904Z,15.70
2019-05-30T03:15:36.727Z,15.70
2019-05-30T03:18:05.288Z,15.70
2019-05-30T03:20:32.866Z,15.80
2019-05-30T03:22:59.933Z,15.80
2019-05-30T03:25:27.330Z,16.00
2019-05-30T03:27:54.885Z,16.00
2019-05-30T03:30:28.980Z,16.10
2019-05-30T03:33:15.375Z,16.10
2019-05-30T03:35:29.980Z,16.10
2019-05-30T03:37:56.545Z,16.20
2019-05-30T03:40:25.701Z,16.20
2019-05-30T03:42:53.719Z,16.10
2019-05-30T03:45:24.446Z,16.10
2019-05-30T03:47:55.263Z,16.20
2019-05-30T03:50:26.609Z,16.10
2019-05-30T03:52:56.266Z,16.10
2019-05-30T03:55:27.799Z,16.10
2019-05-30T03:58:27.679Z,16.10
2019-05-30T04:01:01.849Z,16.10
2019-05-30T04:03:39.508Z,16.10
2019-05-30T04:06:16.479Z,16.10
2019-05-30T04:08:47.925Z,16.10
2019-05-30T04:11:19.757Z,16.20
2019-05-30T04:13:54.112Z,16.20
2019-05-30T04:16:25.115Z,16.20
2019-05-30T04:18:52.694Z,16.20
2019-05-30T04:21:26.131Z,16.20
2019-05-30T04:23:59.744Z,16.10
2019-05-30T04:26:33.129Z,16.30
2019-05-30T04:29:04.719Z,16.20
2019-05-30T04:31:33.561Z,16.20
2019-05-30T04:34:03.621Z,16.20
2019-05-30T04:36:31.320Z,16.10
2019-05-30T04:38:59.713Z,16.10
2019-05-30T04:41:26.478Z,16.20
2019-05-30T04:43:53.798Z,16.20
2019-05-30T04:46:22.021Z,16.30
2019-05-30T04:48:49.134Z,16.30
2019-05-30T04:51:16.542Z,16.50
2019-05-30T04:53:46.897Z,16.50
2019-05-30T04:56:39.447Z,16.50
2019-05-30T04:59:17.963Z,16.60
2019-05-30T05:01:48.710Z,16.60
2019-05-30T05:04:15.630Z,16.50
2019-05-30T05:06:43.708Z,16.50
2019-05-30T05:09:11.834Z,16.50
2019-05-30T05:11:38.888Z,16.50
2019-05-30T05:14:06.791Z,16.70
2019-05-30T05:16:35.896Z,16.80
2019-05-30T05:19:02.107Z,16.80
2019-05-30T05:21:28.746Z,16.80
2019-05-30T05:23:55.341Z,16.80
2019-05-30T05:26:23.689Z,16.70
2019-05-30T05:28:51.582Z,16.90
2019-05-30T05:31:18.782Z,16.90
2019-05-30T05:33:56.357Z,17.00
2019-05-30T05:36:14.865Z,17.00
2019-05-30T05:38:41.877Z,17.00
2019-05-30T05:41:08.723Z,17.00
2019-05-30T05:43:35.360Z,16.90
2019-05-30T05:46:02.203Z,17.00
2019-05-30T05:48:29.011Z,16.90
2019-05-30T05:50:55.770Z,16.80
2019-05-30T05:53:23.072Z,16.80
2019-05-30T05:55:50.049Z,16.70
2019-05-30T05:58:16.856Z,16.80
2019-05-30T06:00:44.992Z,16.90
2019-05-30T06:03:16.625Z,16.90
2019-05-30T06:05:52.574Z,17.00
2019-05-30T06:08:11.993Z,17.00
2019-05-30T06:10:38.787Z,17.10
2019-05-30T06:13:05.624Z,17.10
2019-05-30T06:15:32.361Z,17.10
2019-05-30T06:17:58.978Z,17.10
2019-05-30T06:20:26.009Z,17.10
2019-05-30T06:22:52.968Z,17.10
2019-05-30T06:25:23.993Z,17.20
2019-05-30T06:27:48.289Z,17.30
2019-05-30T06:30:15.409Z,17.40
2019-05-30T06:32:42.452Z,17.30
2019-05-30T06:35:09.486Z,17.40
2019-05-30T06:37:36.343Z,17.40
2019-05-30T06:40:05.223Z,17.50
2019-05-30T06:42:31.989Z,17.50
2019-05-30T06:44:58.728Z,17.50
2019-05-30T06:47:26.329Z,17.60
2019-05-30T06:49:53.202Z,17.50
2019-05-30T06:52:20.888Z,17.50
2019-05-30T06:54:48.484Z,17.50
2019-05-30T06:57:15.117Z,17.50
2019-05-30T06:59:41.825Z,17.60
2019-05-30T07:02:09.637Z,17.50
2019-05-30T07:04:50.717Z,17.40
2019-05-30T07:07:06.153Z,17.40
2019-05-30T07:09:33.087Z,17.40
2019-05-30T07:11:59.835Z,17.30
2019-05-30T07:14:27.236Z,17.40
2019-05-30T07:16:54.143Z,17.30
2019-05-30T07:19:20.901Z,17.50
2019-05-30T07:21:47.630Z,17.50
2019-05-30T07:24:14.315Z,17.40
2019-05-30T07:26:41.026Z,17.30
2019-05-30T07:29:07.758Z,17.40
2019-05-30T07:31:34.454Z,17.50
2019-05-30T07:34:01.195Z,17.60
2019-05-30T07:36:30.994Z,17.70
2019-05-30T07:38:57.748Z,17.70
2019-05-30T07:41:24.700Z,17.70
2019-05-30T07:43:51.712Z,17.80
2019-05-30T07:46:18.308Z,17.70
2019-05-30T07:48:45.153Z,17.70
2019-05-30T07:51:11.886Z,17.80
2019-05-30T07:53:39.201Z,17.80
2019-05-30T07:56:06.259Z,17.90
2019-05-30T07:58:33.365Z,17.90
2019-05-30T08:01:00.234Z,17.80
2019-05-30T08:03:27.306Z,17.90
2019-05-30T08:05:55.104Z,17.90
2019-05-30T08:08:23.665Z,18.10
2019-05-30T08:10:50.345Z,18.10
2019-05-30T08:13:16.959Z,18.10
2019-05-30T08:15:44.223Z,18.10
2019-05-30T08:18:11.108Z,18.10
2019-05-30T08:20:38.037Z,18.00
2019-05-30T08:23:04.918Z,18.10
2019-05-30T08:25:32.212Z,18.10
2019-05-30T08:27:59.032Z,18.10
2019-05-30T08:30:26.058Z,18.30
2019-05-30T08:32:52.748Z,18.30
2019-05-30T08:35:19.461Z,18.30
2019-05-30T08:37:46.232Z,18.40
2019-05-30T08:40:13.449Z,18.40
2019-05-30T08:42:40.425Z,18.30
2019-05-30T08:45:10.021Z,18.30
2019-05-30T08:47:38.065Z,18.20
2019-05-30T08:50:05.875Z,18.20
2019-05-30T08:52:32.659Z,18.30
2019-05-30T08:54:59.374Z,18.30
2019-05-30T08:57:26.298Z,18.30
2019-05-30T08:59:53.262Z,18.30
2019-05-30T09:02:20.052Z,18.30
2019-05-30T09:04:46.701Z,18.30
2019-05-30T09:07:13.434Z,18.30
2019-05-30T09:09:40.762Z,18.40
2019-05-30T09:12:07.391Z,18.50
2019-05-30T09:14:34.104Z,18.70
2019-05-30T09:17:00.737Z,18.90
2019-05-30T09:19:28.810Z,18.90
2019-05-30T09:21:55.581Z,19.00
2019-05-30T09:24:22.447Z,19.20
2019-05-30T09:26:50.501Z,19.40
2019-05-30T09:29:17.308Z,19.50
2019-05-30T09:31:44.535Z,19.80
2019-05-30T09:34:12.118Z,19.90
2019-05-30T09:36:39.937Z,20.10
2019-05-30T09:39:07.831Z,20.20
2019-05-30T09:41:35.031Z,20.30
2019-05-30T09:44:02.058Z,20.30
2019-05-30T09:46:29.240Z,20.30
2019-05-30T09:48:57.101Z,20.10
2019-05-30T09:51:25.222Z,20.10
2019-05-30T09:53:52.909Z,20.40
2019-05-30T09:56:21.209Z,20.60
2019-05-30T09:58:49.769Z,20.70
2019-05-30T10:01:20.688Z,21.00
2019-05-30T10:03:52.276Z,21.20
2019-05-30T10:06:29.625Z,21.40
2019-05-30T10:08:56.075Z,21.70
2019-05-30T10:11:23.440Z,22.20
2019-05-30T10:13:51.251Z,22.50
2019-05-30T10:16:20.193Z,22.50
2019-05-30T10:18:47.716Z,22.50
2019-05-30T10:21:16.282Z,22.80
2019-05-30T10:23:45.861Z,22.80
2019-05-30T10:26:14.015Z,22.90
2019-05-30T10:28:41.366Z,23.10
2019-05-30T10:31:09.241Z,23.00
2019-05-30T10:33:37.959Z,23.00
2019-05-30T10:36:05.936Z,22.90
2019-05-30T10:38:36.038Z,22.80
2019-05-30T10:41:04.956Z,22.70
2019-05-30T10:43:35.135Z,22.60
2019-05-30T10:46:02.914Z,22.40
2019-05-30T10:48:30.064Z,22.20
2019-05-30T10:50:58.454Z,22.10
2019-05-30T10:53:27.298Z,22.10
2019-05-30T10:55:56.572Z,22.30
2019-05-30T10:58:24.004Z,22.20
2019-05-30T11:00:55.777Z,22.30
2019-05-30T11:03:26.167Z,22.20
2019-05-30T11:05:59.702Z,22.10
2019-05-30T11:08:29.511Z,22.10
2019-05-30T11:10:59.279Z,22.00
2019-05-30T11:13:25.996Z,22.00
2019-05-30T11:15:55.571Z,21.90
2019-05-30T11:18:22.963Z,21.90
2019-05-30T11:20:50.300Z,22.00
2019-05-30T11:23:17.175Z,22.00
2019-05-30T11:25:43.979Z,22.00
2019-05-30T11:28:11.621Z,21.90
2019-05-30T11:30:38.294Z,21.80
2019-05-30T11:33:10.313Z,21.80
2019-05-30T11:35:37.872Z,21.70
2019-05-30T11:38:06.079Z,21.70
2019-05-30T11:40:32.838Z,21.80
2019-05-30T11:43:00.027Z,21.90
2019-05-30T11:45:27.109Z,21.90
2019-05-30T11:47:56.259Z,21.90
2019-05-30T11:50:23.445Z,21.90
2019-05-30T11:52:50.172Z,21.80
2019-05-30T11:55:17.671Z,21.80
2019-05-30T11:57:45.161Z,21.60
2019-05-30T12:00:12.901Z,21.50
2019-05-30T12:02:40.236Z,21.40
2019-05-30T12:05:08.130Z,21.40
2019-05-30T12:07:36.779Z,21.40
2019-05-30T12:10:07.206Z,21.50
2019-05-30T12:12:34.695Z,21.60
2019-05-30T12:15:03.657Z,21.70
2019-05-30T12:17:31.385Z,21.80
2019-05-30T12:19:58.254Z,21.90
2019-05-30T12:22:26.936Z,22.00
2019-05-30T12:24:54.091Z,22.20
2019-05-30T12:27:21.675Z,22.30
2019-05-30T12:29:48.829Z,22.50
2019-05-30T12:32:16.481Z,22.70
2019-05-30T12:34:44.442Z,22.80
2019-05-30T12:37:11.761Z,23.00
2019-05-30T12:39:54.863Z,23.20
2019-05-30T12:42:24.429Z,23.40
2019-05-30T12:44:54.992Z,23.40
2019-05-30T12:47:26.708Z,23.50
2019-05-30T12:49:55.135Z,23.50
2019-05-30T12:52:23.464Z,23.50
2019-05-30T12:54:50.629Z,23.40
2019-05-30T12:57:21.226Z,23.40
2019-05-30T12:59:50.268Z,23.40
2019-05-30T13:02:21.337Z,23.30
2019-05-30T13:04:48.383Z,23.30
2019-05-30T13:07:15.055Z,23.40
2019-05-30T13:09:42.010Z,23.50
2019-05-30T13:12:08.791Z,23.50
2019-05-30T13:14:36.886Z,23.60
2019-05-30T13:17:04.311Z,23.70
2019-05-30T13:19:31.143Z,24.10
2019-05-30T13:21:57.757Z,24.10
2019-05-30T13:24:24.866Z,24.10
2019-05-30T13:26:51.536Z,24.00
2019-05-30T13:29:18.714Z,24.00
2019-05-30T13:31:45.961Z,24.00
2019-05-30T13:34:13.215Z,23.90
2019-05-30T13:36:39.926Z,23.80
2019-05-30T13:39:07.491Z,23.60
2019-05-30T13:41:34.863Z,23.70
2019-05-30T13:44:06.497Z,23.70
2019-05-30T13:46:32.937Z,23.80
2019-05-30T13:49:02.568Z,23.70
2019-05-30T13:51:30.811Z,23.60
2019-05-30T13:54:02.786Z,23.70
2019-05-30T13:56:33.738Z,23.70
2019-05-30T13:59:01.797Z,23.60
2019-05-30T14:01:28.704Z,23.60
2019-05-30T14:03:55.533Z,23.60
2019-05-30T14:06:23.363Z,23.60
2019-05-30T14:08:50.813Z,23.60
2019-05-30T14:11:19.670Z,23.60
2019-05-30T14:13:47.187Z,23.70
2019-05-30T14:16:14.456Z,23.70
2019-05-30T14:18:41.100Z,23.60
2019-05-30T14:21:09.268Z,23.70
2019-05-30T14:23:36.164Z,23.70
2019-05-30T14:26:03.707Z,23.80
2019-05-30T14:28:30.630Z,23.80
2019-05-30T14:30:57.689Z,23.80
2019-05-30T14:33:25.675Z,23.90
2019-05-30T14:35:53.237Z,23.90
2019-05-30T14:38:20.824Z,23.90
2019-05-30T14:40:50.900Z,23.70
2019-05-30T14:43:18.799Z,23.70
2019-05-30T14:45:46.237Z,23.70
2019-05-30T14:48:13.568Z,23.70
2019-05-30T14:50:40.517Z,23.60
2019-05-30T14:53:07.291Z,23.60
2019-05-30T14:55:33.944Z,23.50
2019-05-30T14:58:00.747Z,23.50
2019-05-30T15:00:27.506Z,23.50
2019-05-30T15:02:54.143Z,23.50
2019-05-30T15:05:20.990Z,23.50
2019-05-30T15:07:47.826Z,23.50
2019-05-30T15:10:14.802Z,23.50
2019-05-30T15:12:41.641Z,23.50
2019-05-30T15:15:12.630Z,23.40
2019-05-30T15:17:37.384Z,23.40
2019-05-30T15:20:07.472Z,23.50
2019-05-30T15:22:34.223Z,23.50
2019-05-30T15:25:01.944Z,23.50
2019-05-30T15:27:31.778Z,23.60
2019-05-30T15:30:00.983Z,23.50
2019-05-30T15:32:28.512Z,23.50
2019-05-30T15:34:56.803Z,23.60
2019-05-30T15:37:25.462Z,23.60
2019-05-30T15:39:53.143Z,23.60
2019-05-30T15:42:20.937Z,23.60
2019-05-30T15:44:49.335Z,23.60
2019-05-30T15:47:18.459Z,23.50
2019-05-30T15:49:46.394Z,23.60
2019-05-30T15:52:14.864Z,23.60
2019-05-30T15:54:42.275Z,23.60
2019-05-30T15:57:11.430Z,23.40
2019-05-30T15:59:39.818Z,23.50
2019-05-30T16:02:10.496Z,23.60
2019-05-30T16:04:40.612Z,23.70
2019-05-30T16:07:08.117Z,23.70
2019-05-30T16:09:47.174Z,23.70
2019-05-30T16:12:09.215Z,23.70
2019-05-30T16:14:35.956Z,23.70
2019-05-30T16:17:04.935Z,23.60
2019-05-30T16:19:32.628Z,23.50
2019-05-30T16:22:03.628Z,23.50
2019-05-30T16:24:32.464Z,23.60
2019-05-30T16:27:01.600Z,23.50
2019-05-30T16:29:30.643Z,23.50
2019-05-30T16:31:57.632Z,23.50
2019-05-30T16:34:32.820Z,23.60
2019-05-30T16:37:00.166Z,23.50
2019-05-30T16:39:29.237Z,23.50
2019-05-30T16:41:59.757Z,23.50
2019-05-30T16:44:27.841Z,23.60
2019-05-30T16:46:56.228Z,23.50
2019-05-30T16:49:27.362Z,23.50
2019-05-30T16:51:58.646Z,23.40
2019-05-30T16:54:27.713Z,23.30
2019-05-30T16:56:54.744Z,23.30
2019-05-30T16:59:23.485Z,23.30
2019-05-30T17:01:57.673Z,23.30
2019-05-30T17:04:24.868Z,23.30
2019-05-30T17:06:54.621Z,23.40
2019-05-30T17:09:27.709Z,23.50
2019-05-30T17:11:56.242Z,23.40
2019-05-30T17:14:25.986Z,23.40
2019-05-30T17:16:56.198Z,23.50
2019-05-30T17:19:26.928Z,23.40
2019-05-30T17:21:54.340Z,23.40
2019-05-30T17:24:22.998Z,23.30
2019-05-30T17:26:53.473Z,23.30
2019-05-30T17:29:21.960Z,23.40
2019-05-30T17:31:51.070Z,23.50
2019-05-30T17:34:24.157Z,23.60
2019-05-30T17:36:52.137Z,23.50
2019-05-30T17:39:20.378Z,23.40
2019-05-30T17:41:50.321Z,23.10
2019-05-30T17:44:18.964Z,23.10
2019-05-30T17:46:49.509Z,23.00
2019-05-30T17:49:16.247Z,23.10
2019-05-30T17:51:49.914Z,23.10
2019-05-30T17:54:20.145Z,23.10
2019-05-30T17:56:48.027Z,23.10
2019-05-30T17:59:15.135Z,23.10
2019-05-30T18:01:43.894Z,23.00
2019-05-30T18:04:11.293Z,23.00
2019-05-30T18:06:37.926Z,22.90
2019-05-30T18:09:10.493Z,22.80
2019-05-30T18:11:37.353Z,22.80
2019-05-30T18:14:07.431Z,22.80
2019-05-30T18:16:34.186Z,22.80
2019-05-30T18:19:03.973Z,22.90
2019-05-30T18:21:31.888Z,22.80
2019-05-30T18:23:58.668Z,22.90
2019-05-30T18:26:27.518Z,22.90
2019-05-30T18:28:54.637Z,22.90
2019-05-30T18:31:22.027Z,22.80
2019-05-30T18:33:49.091Z,22.90
2019-05-30T18:36:16.696Z,22.80
2019-05-30T18:38:44.592Z,22.80
2019-05-30T18:41:16.417Z,22.90
2019-05-30T18:43:43.110Z,23.00
2019-05-30T18:46:10.268Z,23.00
2019-05-30T18:48:37.209Z,22.90
2019-05-30T18:51:05.584Z,22.90
2019-05-30T18:53:36.728Z,22.90
2019-05-30T18:56:03.622Z,23.00
2019-05-30T18:58:31.192Z,22.90
2019-05-30T19:00:58.389Z,22.90
2019-05-30T19:03:26.472Z,22.90
2019-05-30T19:05:53.626Z,22.80
2019-05-30T19:08:20.703Z,22.70
2019-05-30T19:10:50.191Z,22.60
2019-05-30T19:13:20.124Z,22.50
2019-05-30T19:15:47.302Z,22.50
2019-05-30T19:18:14.055Z,22.40
2019-05-30T19:20:43.263Z,22.40
2019-05-30T19:23:16.147Z,22.40
2019-05-30T19:25:45.647Z,22.50
2019-05-30T19:28:13.136Z,22.60
2019-05-30T19:30:42.319Z,22.40
2019-05-30T19:33:11.552Z,22.40
2019-05-30T19:35:39.591Z,22.30
2019-05-30T19:38:07.865Z,22.20
2019-05-30T19:40:36.101Z,22.20
2019-05-30T19:43:04.460Z,22.10
2019-05-30T19:45:34.080Z,22.00
2019-05-30T19:48:05.527Z,22.00
2019-05-30T19:50:34.706Z,21.90
2019-05-30T19:53:02.409Z,21.90
2019-05-30T19:55:29.217Z,21.90
2019-05-30T19:57:56.006Z,21.90
2019-05-30T20:00:23.322Z,22.00
2019-05-30T20:02:50.052Z,21.90
2019-05-30T20:05:18.817Z,21.80
2019-05-30T20:07:48.418Z,21.90
2019-05-30T20:10:17.897Z,21.90
2019-05-30T20:12:44.749Z,21.80
2019-05-30T20:15:12.797Z,21.80
2019-05-30T20:17:43.042Z,21.80
2019-05-30T20:20:11.886Z,21.70
2019-05-30T20:22:40.214Z,21.70
2019-05-30T20:25:08.422Z,21.70
2019-05-30T20:27:36.615Z,21.70
2019-05-30T20:30:07.800Z,21.70
2019-05-30T20:32:38.821Z,21.60
2019-05-30T20:35:07.320Z,21.50
2019-05-30T20:37:36.774Z,21.50
2019-05-30T20:40:04.799Z,21.50
2019-05-30T20:42:36.784Z,21.40
2019-05-30T20:45:10.219Z,21.30
2019-05-30T20:47:38.753Z,21.30
2019-05-30T20:50:09.888Z,21.30
2019-05-30T20:52:39.956Z,21.30
2019-05-30T20:55:08.614Z,21.20
2019-05-30T20:57:36.235Z,21.10
2019-05-30T21:00:09.030Z,21.10
2019-05-30T21:02:38.745Z,21.10
2019-05-30T21:05:09.116Z,21.00
2019-05-30T21:07:40.319Z,21.10
2019-05-30T21:10:10.622Z,21.00
2019-05-30T21:12:44.395Z,20.90
2019-05-30T21:15:11.568Z,20.90
2019-05-30T21:17:41.931Z,20.90
2019-05-30T21:20:11.977Z,20.80
2019-05-30T21:22:40.231Z,20.80
2019-05-30T21:25:08.436Z,20.80
2019-05-30T21:27:36.925Z,20.80
2019-05-30T21:30:08.892Z,20.70
2019-05-30T21:32:37.674Z,20.80
2019-05-30T21:35:07.952Z,20.70
2019-05-30T21:37:39.598Z,20.70
2019-05-30T21:40:08.938Z,20.70
2019-05-30T21:42:51.580Z,20.60
2019-05-30T21:45:07.408Z,20.50
2019-05-30T21:47:35.682Z,20.50
2019-05-30T21:50:06.820Z,20.40
2019-05-30T21:52:33.927Z,20.20
2019-05-30T21:55:03.284Z,20.20
2019-05-30T21:57:30.481Z,20.30
2019-05-30T21:59:57.414Z,20.30
2019-05-30T22:02:25.362Z,20.40
2019-05-30T22:04:53.979Z,20.50
2019-05-30T22:07:21.754Z,20.30
2019-05-30T22:09:51.536Z,20.30
2019-05-30T22:12:20.457Z,20.40
2019-05-30T22:14:49.875Z,20.20
2019-05-30T22:17:17.744Z,20.30
2019-05-30T22:19:46.286Z,20.20
2019-05-30T22:22:15.303Z,20.10
2019-05-30T22:24:44.187Z,20.10
2019-05-30T22:27:13.492Z,20.10
2019-05-30T22:29:42.404Z,20.10
2019-05-30T22:32:13.932Z,20.10
2019-05-30T22:34:43.140Z,20.10
2019-05-30T22:37:11.687Z,20.10
2019-05-30T22:39:40.836Z,20.00
2019-05-30T22:42:09.168Z,20.00
2019-05-30T22:44:40.474Z,20.00
2019-05-30T22:47:08.520Z,19.90
2019-05-30T22:49:37.539Z,19.80
2019-05-30T22:52:07.633Z,19.80
2019-05-30T22:54:35.919Z,19.80
2019-05-30T22:57:04.668Z,19.80
2019-05-30T22:59:33.251Z,19.90
2019-05-30T23:02:00.347Z,19.90
2019-05-30T23:04:26.994Z,19.80
2019-05-30T23:06:56.516Z,19.80
2019-05-30T23:09:28.424Z,19.70
2019-05-30T23:11:56.469Z,19.60
2019-05-30T23:14:24.071Z,19.70
2019-05-30T23:16:54.388Z,19.80
2019-05-30T23:19:27.838Z,19.80
2019-05-30T23:21:57.494Z,19.80
2019-05-30T23:24:27.017Z,19.90
2019-05-30T23:26:53.980Z,19.90
2019-05-30T23:29:22.442Z,19.90
2019-05-30T23:31:50.480Z,19.90
2019-05-30T23:34:21.704Z,19.80
2019-05-30T23:36:50.498Z,19.70
2019-05-30T23:39:22.742Z,19.70
2019-05-30T23:41:51.180Z,19.70
2019-05-30T23:44:19.325Z,19.70
2019-05-30T23:46:51.442Z,19.70
2019-05-30T23:49:20.233Z,19.60
2019-05-30T23:51:47.876Z,19.70
2019-05-30T23:54:14.530Z,19.70
2019-05-30T23:56:43.955Z,19.60
2019-05-30T23:59:10.948Z,19.50
